Time;durP1;ratioP1;P1;durP2;ratioP2;P2;SDS_P1;SDS_P2;PMS_P1;PMS_P2;Temp;Humidity;BMP_temperature;BMP_pressure;BME280_temperature;BME280_humidity;BME280_pressure;Samples;Min_cycle;Max_cycle;Signal;HPM_P1;HPM_P2
2023/03/19 00:01:08;;;;;;;10.77;8.30;;;;;;;;;;5036972;28;20568;-75
2023/03/19 00:03:34;;;;;;;8.90;7.43;;;;;;;;;;5031482;28;20033;-75
2023/03/19 00:06:01;;;;;;;9.43;8.25;;;;;;;;;;5038216;28;20052;-75
2023/03/19 00:08:27;;;;;;;10.20;7.30;;;;;;;;;;5014336;28;20140;-75
2023/03/19 00:10:53;;;;;;;9.43;6.93;;;;;;;;;;5016239;28;20581;-75
2023/03/19 00:13:19;;;;;;;10.27;7.80;;;;;;;;;;5012964;28;20049;-75
2023/03/19 00:15:46;;;;;;;9.63;7.63;;;;;;;;;;5025555;28;20045;-75
2023/03/19 00:18:12;;;;;;;8.63;7.28;;;;;;;;;;5018667;28;20045;-75
2023/03/19 00:20:38;;;;;;;8.93;7.20;;;;;;;;;;5022631;28;20107;-75
2023/03/19 00:23:05;;;;;;;10.77;8.10;;;;;;;;;;5031042;28;20107;-75
2023/03/19 00:25:32;;;;;;;10.10;6.80;;;;;;;;;;5049316;28;20135;-75
2023/03/19 00:27:58;;;;;;;9.15;7.38;;;;;;;;;;5021692;28;20096;-75
2023/03/19 00:30:24;;;;;;;11.77;8.80;;;;;;;;;;5033100;28;20049;-76
2023/03/19 00:32:50;;;;;;;11.27;8.82;;;;;;;;;;5035134;28;20041;-76
2023/03/19 00:35:16;;;;;;;12.13;9.85;;;;;;;;;;5028705;28;20045;-75
2023/03/19 00:37:42;;;;;;;13.13;10.82;;;;;;;;;;5034005;28;20080;-76
2023/03/19 00:40:09;;;;;;;12.85;11.00;;;;;;;;;;5032641;28;20497;-75
2023/03/19 00:42:36;;;;;;;16.75;11.57;;;;;;;;;;5043028;28;20041;-76
2023/03/19 00:45:02;;;;;;;14.20;11.10;;;;;;;;;;5025497;28;20038;-75
2023/03/19 00:47:28;;;;;;;13.30;10.52;;;;;;;;;;5036626;28;20389;-75
2023/03/19 00:49:54;;;;;;;12.68;10.73;;;;;;;;;;5020723;28;20041;-75
2023/03/19 00:52:20;;;;;;;12.98;10.90;;;;;;;;;;5018924;28;20114;-75
2023/03/19 00:54:46;;;;;;;13.95;10.95;;;;;;;;;;5014314;28;20149;-75
2023/03/19 00:57:12;;;;;;;12.65;10.48;;;;;;;;;;5023115;28;20068;-75
2023/03/19 00:59:38;;;;;;;13.25;10.95;;;;;;;;;;5036463;28;20037;-75
2023/03/19 01:02:04;;;;;;;13.57;11.50;;;;;;;;;;5036434;28;20041;-76
2023/03/19 01:04:30;;;;;;;12.07;10.77;;;;;;;;;;5043909;28;20063;-75
2023/03/19 01:06:57;;;;;;;13.80;10.18;;;;;;;;;;5043234;28;20110;-76
2023/03/19 01:09:23;;;;;;;15.45;11.15;;;;;;;;;;5020160;28;20057;-75
2023/03/19 01:11:49;;;;;;;12.68;10.52;;;;;;;;;;5039254;28;20067;-76
2023/03/19 01:14:16;;;;;;;12.10;8.60;;;;;;;;;;5037189;28;20048;-76
2023/03/19 01:16:43;;;;;;;12.32;9.52;;;;;;;;;;5025632;28;20144;-75
2023/03/19 01:19:09;;;;;;;13.38;10.00;;;;;;;;;;5022559;28;20397;-76
2023/03/19 01:21:35;;;;;;;12.05;9.65;;;;;;;;;;5046657;28;20056;-75
2023/03/19 01:24:01;;;;;;;14.15;10.02;;;;;;;;;;5041593;28;20398;-75
2023/03/19 01:26:27;;;;;;;15.10;10.70;;;;;;;;;;5017830;28;20045;-75
2023/03/19 01:28:53;;;;;;;12.07;10.50;;;;;;;;;;5025425;28;20090;-76
2023/03/19 01:31:20;;;;;;;11.07;9.88;;;;;;;;;;5036925;28;20128;-75
2023/03/19 01:33:46;;;;;;;12.40;9.75;;;;;;;;;;5043695;28;20433;-75
2023/03/19 01:36:13;;;;;;;12.75;9.38;;;;;;;;;;5042668;28;20086;-76
2023/03/19 01:38:39;;;;;;;12.48;9.32;;;;;;;;;;5027852;28;20400;-76
2023/03/19 01:41:05;;;;;;;12.75;9.57;;;;;;;;;;5048546;28;20052;-76
2023/03/19 01:43:31;;;;;;;12.18;9.18;;;;;;;;;;5018190;28;20179;-75
2023/03/19 01:46:05;;;;;;;11.15;8.63;;;;;;;;;;5027325;28;20508;-75
2023/03/19 01:48:34;;;;;;;10.80;8.98;;;;;;;;;;5017504;28;20088;-75
2023/03/19 01:51:00;;;;;;;12.38;9.45;;;;;;;;;;5038327;28;20614;-76
2023/03/19 01:53:29;;;;;;;11.48;9.35;;;;;;;;;;5017271;28;20048;-75
2023/03/19 01:55:57;;;;;;;12.45;9.32;;;;;;;;;;5020638;28;20057;-76
2023/03/19 01:58:25;;;;;;;12.57;10.02;;;;;;;;;;5040373;28;20059;-75
2023/03/19 02:00:51;;;;;;;12.48;10.20;;;;;;;;;;5038761;28;20063;-75
2023/03/19 02:03:17;;;;;;;13.38;10.85;;;;;;;;;;5020921;28;20602;-76
2023/03/19 02:05:44;;;;;;;15.13;11.27;;;;;;;;;;5017220;28;20045;-76
2023/03/19 02:08:11;;;;;;;13.65;10.35;;;;;;;;;;5031041;28;20087;-75
2023/03/19 02:10:38;;;;;;;13.63;9.75;;;;;;;;;;5039734;28;20527;-76
2023/03/19 02:13:05;;;;;;;14.90;10.60;;;;;;;;;;5042782;28;20045;-75
2023/03/19 02:15:31;;;;;;;12.68;10.43;;;;;;;;;;5040539;28;20562;-76
2023/03/19 02:17:57;;;;;;;12.15;9.73;;;;;;;;;;5041357;28;20037;-76
2023/03/19 02:20:26;;;;;;;11.45;9.98;;;;;;;;;;5018955;28;20045;-75
2023/03/19 02:22:59;;;;;;;13.18;11.10;;;;;;;;;;5044304;28;20034;-76
2023/03/19 02:25:28;;;;;;;13.07;10.93;;;;;;;;;;5044611;28;20076;-76
2023/03/19 02:27:54;;;;;;;14.57;11.23;;;;;;;;;;5040419;28;20049;-76
2023/03/19 02:30:25;;;;;;;14.77;11.55;;;;;;;;;;5045043;28;20053;-75
2023/03/19 02:32:51;;;;;;;13.85;11.85;;;;;;;;;;5045352;28;20050;-75
2023/03/19 02:35:17;;;;;;;15.10;12.30;;;;;;;;;;5019923;28;20049;-75
2023/03/19 02:37:43;;;;;;;15.77;13.15;;;;;;;;;;5017952;28;20392;-76
2023/03/19 02:40:13;;;;;;;17.35;14.38;;;;;;;;;;5044995;28;20044;-76
2023/03/19 02:42:39;;;;;;;18.40;13.88;;;;;;;;;;5022921;28;20042;-75
2023/03/19 02:45:06;;;;;;;18.38;14.07;;;;;;;;;;5018042;28;20053;-75
2023/03/19 02:47:32;;;;;;;17.15;13.65;;;;;;;;;;5018583;28;20129;-75
2023/03/19 02:49:58;;;;;;;16.20;13.50;;;;;;;;;;5045749;28;20060;-75
2023/03/19 02:52:24;;;;;;;16.90;13.80;;;;;;;;;;5036710;28;20119;-75
2023/03/19 02:54:50;;;;;;;19.10;14.32;;;;;;;;;;5037881;28;20065;-76
2023/03/19 02:57:16;;;;;;;19.02;14.63;;;;;;;;;;5024896;28;20044;-75
2023/03/19 02:59:42;;;;;;;16.98;14.73;;;;;;;;;;5023262;28;20501;-75
2023/03/19 03:02:09;;;;;;;20.10;15.43;;;;;;;;;;5021277;28;20041;-76
2023/03/19 03:04:36;;;;;;;20.13;16.35;;;;;;;;;;5021158;28;20836;-75
2023/03/19 03:07:02;;;;;;;20.85;16.50;;;;;;;;;;5036514;28;20508;-75
2023/03/19 03:09:29;;;;;;;21.63;16.52;;;;;;;;;;5038762;28;20045;-75
2023/03/19 03:11:56;;;;;;;22.00;17.05;;;;;;;;;;5017580;28;20073;-76
2023/03/19 03:14:22;;;;;;;22.77;18.50;;;;;;;;;;5024073;28;20132;-76
2023/03/19 03:16:48;;;;;;;22.98;18.27;;;;;;;;;;5018978;28;20046;-75
2023/03/19 03:19:14;;;;;;;24.42;18.67;;;;;;;;;;5037348;28;20041;-75
2023/03/19 03:21:41;;;;;;;22.50;17.75;;;;;;;;;;5045204;28;20072;-75
2023/03/19 03:24:08;;;;;;;28.95;18.25;;;;;;;;;;5019979;28;20080;-76
2023/03/19 03:26:37;;;;;;;25.85;18.83;;;;;;;;;;5021915;28;20049;-75
2023/03/19 03:29:04;;;;;;;25.80;18.55;;;;;;;;;;5023608;28;20116;-75
2023/03/19 03:31:30;;;;;;;24.17;17.92;;;;;;;;;;5042558;28;20049;-76
2023/03/19 03:33:56;;;;;;;26.08;19.50;;;;;;;;;;5023671;28;20091;-75
2023/03/19 03:36:22;;;;;;;26.25;19.15;;;;;;;;;;5039332;28;20037;-75
2023/03/19 03:38:48;;;;;;;27.92;20.60;;;;;;;;;;5018180;28;20061;-75
2023/03/19 03:41:14;;;;;;;23.25;18.20;;;;;;;;;;5037693;28;20116;-75
2023/03/19 03:43:40;;;;;;;25.55;19.33;;;;;;;;;;5035319;28;20037;-75
2023/03/19 03:46:07;;;;;;;24.85;18.83;;;;;;;;;;5017488;28;20576;-75
2023/03/19 03:48:34;;;;;;;27.30;18.80;;;;;;;;;;5040067;28;20037;-75
2023/03/19 03:51:00;;;;;;;27.17;19.27;;;;;;;;;;5032353;28;20076;-75
2023/03/19 03:53:26;;;;;;;24.17;18.45;;;;;;;;;;5027615;28;20052;-75
2023/03/19 03:55:52;;;;;;;28.42;19.25;;;;;;;;;;5011802;28;20045;-75
2023/03/19 03:58:18;;;;;;;25.17;18.23;;;;;;;;;;5015395;28;20045;-75
2023/03/19 04:00:45;;;;;;;23.70;17.70;;;;;;;;;;5034943;28;20069;-76
2023/03/19 04:03:11;;;;;;;27.45;18.25;;;;;;;;;;5018575;28;20416;-76
2023/03/19 04:05:37;;;;;;;27.90;18.85;;;;;;;;;;5019017;28;20132;-75
2023/03/19 04:08:04;;;;;;;25.88;18.88;;;;;;;;;;5015980;28;20405;-75
2023/03/19 04:10:31;;;;;;;25.90;18.77;;;;;;;;;;5011787;28;20140;-75
2023/03/19 04:12:57;;;;;;;28.15;19.73;;;;;;;;;;5033154;28;20120;-76
2023/03/19 04:15:23;;;;;;;26.45;18.63;;;;;;;;;;5013002;28;20155;-75
2023/03/19 04:17:49;;;;;;;30.08;19.30;;;;;;;;;;5019635;28;20503;-76
2023/03/19 04:20:17;;;;;;;27.63;17.83;;;;;;;;;;5017571;28;20053;-76
2023/03/19 04:22:43;;;;;;;27.40;18.98;;;;;;;;;;5016587;28;20503;-76
2023/03/19 04:25:09;;;;;;;28.83;18.90;;;;;;;;;;5034017;28;20077;-76
2023/03/19 04:27:35;;;;;;;28.13;19.17;;;;;;;;;;5042319;28;20041;-76
2023/03/19 04:30:02;;;;;;;26.80;18.65;;;;;;;;;;5034975;28;20045;-76
2023/03/19 04:32:28;;;;;;;25.65;16.98;;;;;;;;;;5025327;28;20088;-75
2023/03/19 04:34:55;;;;;;;27.02;18.60;;;;;;;;;;5011827;28;20057;-78
2023/03/19 04:37:21;;;;;;;25.48;17.85;;;;;;;;;;5015869;28;20056;-76
2023/03/19 04:39:47;;;;;;;25.85;17.65;;;;;;;;;;5019211;28;20057;-76
2023/03/19 04:42:14;;;;;;;26.73;18.35;;;;;;;;;;5012419;28;20095;-76
2023/03/19 04:44:40;;;;;;;28.45;18.65;;;;;;;;;;5033019;28;20481;-76
2023/03/19 04:47:07;;;;;;;28.38;18.20;;;;;;;;;;5013161;28;20049;-75
2023/03/19 04:49:33;;;;;;;26.88;18.52;;;;;;;;;;5032990;28;20037;-75
2023/03/19 04:51:59;;;;;;;31.58;20.42;;;;;;;;;;5016343;28;20037;-76
2023/03/19 04:54:26;;;;;;;27.42;19.13;;;;;;;;;;5033422;28;20162;-76
2023/03/19 04:56:52;;;;;;;26.02;18.75;;;;;;;;;;5032040;28;20088;-76
2023/03/19 04:59:18;;;;;;;26.67;18.23;;;;;;;;;;5037586;28;20052;-76
2023/03/19 05:01:45;;;;;;;28.50;19.55;;;;;;;;;;5036598;28;20129;-76
2023/03/19 05:04:11;;;;;;;26.30;18.67;;;;;;;;;;5018037;28;21367;-76
2023/03/19 05:06:37;;;;;;;25.48;19.05;;;;;;;;;;5022499;28;20439;-76
2023/03/19 05:09:04;;;;;;;29.75;20.15;;;;;;;;;;5037863;28;20439;-76
2023/03/19 05:11:30;;;;;;;27.67;19.60;;;;;;;;;;5036033;28;20382;-75
2023/03/19 05:13:56;;;;;;;27.08;19.40;;;;;;;;;;5026255;28;20045;-76
2023/03/19 05:16:22;;;;;;;27.77;19.55;;;;;;;;;;5023155;28;20048;-76
2023/03/19 05:18:48;;;;;;;26.25;18.30;;;;;;;;;;5023917;28;20125;-76
2023/03/19 05:21:14;;;;;;;26.77;18.80;;;;;;;;;;5025688;28;20056;-75
2023/03/19 05:23:41;;;;;;;25.02;17.88;;;;;;;;;;5011869;28;20041;-76
2023/03/19 05:26:08;;;;;;;27.48;17.92;;;;;;;;;;5040917;28;20049;-76
2023/03/19 05:28:34;;;;;;;27.30;17.65;;;;;;;;;;5044349;28;20044;-76
2023/03/19 05:31:00;;;;;;;26.27;18.35;;;;;;;;;;5038255;28;20448;-76
2023/03/19 05:33:27;;;;;;;28.90;19.45;;;;;;;;;;5037845;28;20041;-76
2023/03/19 05:35:53;;;;;;;33.22;20.35;;;;;;;;;;5018611;28;20366;-76
2023/03/19 05:38:19;;;;;;;32.13;20.48;;;;;;;;;;5025521;28;20056;-75
2023/03/19 05:40:45;;;;;;;32.35;21.13;;;;;;;;;;5037180;28;20048;-76
2023/03/19 05:43:12;;;;;;;35.40;21.58;;;;;;;;;;5015660;28;20053;-76
2023/03/19 05:45:38;;;;;;;32.33;19.85;;;;;;;;;;5043586;28;20385;-76
2023/03/19 05:48:04;;;;;;;34.50;21.02;;;;;;;;;;5036421;28;20045;-76
2023/03/19 05:50:32;;;;;;;33.55;20.30;;;;;;;;;;5043324;28;20494;-76
2023/03/19 05:52:58;;;;;;;33.50;20.48;;;;;;;;;;5045999;28;20045;-76
2023/03/19 05:55:24;;;;;;;32.05;19.83;;;;;;;;;;5042124;28;20086;-76
2023/03/19 05:57:50;;;;;;;32.65;20.23;;;;;;;;;;5023295;28;20442;-76
2023/03/19 06:00:17;;;;;;;32.28;19.08;;;;;;;;;;5035807;28;20088;-75
2023/03/19 06:02:43;;;;;;;33.47;20.20;;;;;;;;;;5017436;28;20048;-76
2023/03/19 06:05:10;;;;;;;32.42;19.40;;;;;;;;;;5045110;28;20557;-76
2023/03/19 06:07:36;;;;;;;33.92;20.20;;;;;;;;;;5019427;28;20050;-76
2023/03/19 06:10:03;;;;;;;32.65;19.33;;;;;;;;;;5017273;28;20057;-75
2023/03/19 06:12:30;;;;;;;31.75;17.83;;;;;;;;;;5020219;28;20041;-75
2023/03/19 06:14:56;;;;;;;28.73;17.42;;;;;;;;;;5027474;28;20077;-76
2023/03/19 06:17:22;;;;;;;34.03;18.10;;;;;;;;;;5038525;28;20045;-76
2023/03/19 06:19:48;;;;;;;30.23;17.65;;;;;;;;;;5045600;28;20452;-75
2023/03/19 06:22:14;;;;;;;33.08;17.38;;;;;;;;;;5045111;28;20124;-76
2023/03/19 06:24:40;;;;;;;30.58;18.35;;;;;;;;;;5027714;28;20501;-76
2023/03/19 06:27:07;;;;;;;35.78;19.48;;;;;;;;;;5049901;28;20396;-76
2023/03/19 06:29:33;;;;;;;42.65;23.27;;;;;;;;;;5041375;28;20037;-76
2023/03/19 06:31:59;;;;;;;45.30;25.50;;;;;;;;;;5037181;28;20550;-76
2023/03/19 06:34:25;;;;;;;48.67;26.88;;;;;;;;;;5043851;28;20098;-76
2023/03/19 06:36:52;;;;;;;51.88;27.17;;;;;;;;;;5027765;28;20049;-76
2023/03/19 06:39:19;;;;;;;45.72;24.67;;;;;;;;;;5017977;28;20111;-76
2023/03/19 06:41:45;;;;;;;41.45;22.55;;;;;;;;;;5029098;28;20041;-76
2023/03/19 06:44:11;;;;;;;41.88;21.23;;;;;;;;;;5049652;28;20033;-76
2023/03/19 06:46:37;;;;;;;36.47;19.63;;;;;;;;;;5024700;28;20136;-75
2023/03/19 06:49:03;;;;;;;34.63;20.58;;;;;;;;;;5038669;28;20037;-75
2023/03/19 06:51:29;;;;;;;48.55;19.75;;;;;;;;;;5040123;28;20045;-75
2023/03/19 06:53:55;;;;;;;53.17;16.85;;;;;;;;;;5046970;28;20064;-75
2023/03/19 06:56:21;;;;;;;46.95;16.52;;;;;;;;;;5039533;28;20057;-76
2023/03/19 06:58:47;;;;;;;61.35;15.77;;;;;;;;;;5018145;28;20145;-75
2023/03/19 07:01:13;;;;;;;48.65;14.20;;;;;;;;;;5024164;28;20095;-76
2023/03/19 07:03:39;;;;;;;30.23;12.40;;;;;;;;;;5042387;28;20848;-75
2023/03/19 07:06:06;;;;;;;28.23;12.55;;;;;;;;;;5041930;28;20041;-75
2023/03/19 07:08:32;;;;;;;32.83;13.27;;;;;;;;;;5046110;28;20037;-76
2023/03/19 07:11:05;;;;;;;28.42;12.52;;;;;;;;;;5017288;28;20045;-76
2023/03/19 07:13:31;;;;;;;30.88;13.68;;;;;;;;;;5032446;28;20086;-75
2023/03/19 07:15:58;;;;;;;35.10;11.77;;;;;;;;;;5029562;28;20559;-76
2023/03/19 07:18:24;;;;;;;37.35;12.40;;;;;;;;;;5035235;28;20037;-75
2023/03/19 07:20:51;;;;;;;22.38;11.82;;;;;;;;;;5021213;28;20053;-75
2023/03/19 07:23:17;;;;;;;36.75;12.43;;;;;;;;;;5018393;28;20053;-75
2023/03/19 07:25:44;;;;;;;28.13;11.40;;;;;;;;;;5044155;28;20120;-75
2023/03/19 07:28:10;;;;;;;36.03;11.98;;;;;;;;;;5024999;28;20069;-76
2023/03/19 07:30:37;;;;;;;38.80;12.52;;;;;;;;;;5020412;28;20053;-76
2023/03/19 07:33:03;;;;;;;30.10;10.27;;;;;;;;;;5023364;28;20045;-75
2023/03/19 07:35:29;;;;;;;26.55;10.43;;;;;;;;;;5029821;28;20049;-75
2023/03/19 07:37:55;;;;;;;28.38;11.43;;;;;;;;;;5041725;28;20041;-76
2023/03/19 07:40:21;;;;;;;29.00;12.23;;;;;;;;;;5023814;28;20076;-76
2023/03/19 07:42:47;;;;;;;31.63;11.95;;;;;;;;;;5021153;28;20478;-75
2023/03/19 07:45:14;;;;;;;31.13;12.18;;;;;;;;;;5017802;28;20053;-75
2023/03/19 07:47:40;;;;;;;29.98;12.63;;;;;;;;;;5024721;28;20048;-75
2023/03/19 07:50:06;;;;;;;27.70;11.65;;;;;;;;;;5021224;28;20084;-76
2023/03/19 07:52:32;;;;;;;36.88;11.85;;;;;;;;;;5046600;28;20037;-76
2023/03/19 07:54:58;;;;;;;24.92;11.98;;;;;;;;;;5038687;28;20412;-76
2023/03/19 07:57:25;;;;;;;29.95;11.50;;;;;;;;;;5040290;28;20049;-76
2023/03/19 07:59:51;;;;;;;24.27;12.43;;;;;;;;;;5021145;28;20139;-76
2023/03/19 08:02:18;;;;;;;30.88;11.68;;;;;;;;;;5037504;28;20250;-76
2023/03/19 08:04:44;;;;;;;28.42;12.15;;;;;;;;;;5046626;28;20115;-76
2023/03/19 08:07:11;;;;;;;28.27;11.50;;;;;;;;;;5041851;28;20416;-76
2023/03/19 08:09:38;;;;;;;29.63;10.50;;;;;;;;;;5044305;28;20044;-76
2023/03/19 08:12:04;;;;;;;26.33;10.82;;;;;;;;;;5022486;28;20053;-76
2023/03/19 08:14:30;;;;;;;20.10;10.95;;;;;;;;;;5045194;28;20047;-76
2023/03/19 08:16:56;;;;;;;30.55;10.95;;;;;;;;;;5041183;28;20037;-76
2023/03/19 08:19:22;;;;;;;21.30;10.05;;;;;;;;;;5020287;28;20050;-76
2023/03/19 08:21:48;;;;;;;23.83;10.93;;;;;;;;;;5025649;28;20099;-76
2023/03/19 08:24:14;;;;;;;23.95;10.82;;;;;;;;;;5043179;28;20044;-76
2023/03/19 08:26:40;;;;;;;27.35;11.48;;;;;;;;;;5026925;28;20068;-76
2023/03/19 08:29:07;;;;;;;24.35;11.07;;;;;;;;;;5044504;28;20048;-76
2023/03/19 08:31:33;;;;;;;26.25;11.52;;;;;;;;;;5036217;28;20374;-76
2023/03/19 08:34:01;;;;;;;33.70;11.52;;;;;;;;;;5026952;28;20037;-76
2023/03/19 08:36:27;;;;;;;27.88;11.40;;;;;;;;;;5024383;28;20059;-76
2023/03/19 08:38:53;;;;;;;25.15;11.07;;;;;;;;;;5036801;28;20484;-76
2023/03/19 08:41:20;;;;;;;28.40;11.70;;;;;;;;;;5045812;28;20055;-76
2023/03/19 08:43:46;;;;;;;30.35;10.90;;;;;;;;;;5022047;28;20069;-76
2023/03/19 08:46:12;;;;;;;30.08;10.13;;;;;;;;;;5021537;28;20493;-76
2023/03/19 08:48:38;;;;;;;33.72;10.45;;;;;;;;;;5038890;28;20048;-76
2023/03/19 08:51:05;;;;;;;32.97;10.23;;;;;;;;;;5029458;28;20052;-76
2023/03/19 08:53:31;;;;;;;31.13;10.73;;;;;;;;;;5013598;28;20052;-76
2023/03/19 08:55:59;;;;;;;38.40;11.52;;;;;;;;;;5029388;28;20077;-76
2023/03/19 08:58:25;;;;;;;29.00;10.65;;;;;;;;;;5019924;28;20489;-76
2023/03/19 09:00:52;;;;;;;39.22;10.68;;;;;;;;;;5033071;28;20046;-76
2023/03/19 09:03:19;;;;;;;42.17;17.50;;;;;;;;;;5013675;28;20052;-76
2023/03/19 09:05:45;;;;;;;32.50;11.27;;;;;;;;;;5032052;28;20045;-76
2023/03/19 09:08:11;;;;;;;28.13;10.98;;;;;;;;;;5021656;28;20103;-76
2023/03/19 09:10:37;;;;;;;24.98;10.73;;;;;;;;;;5047758;28;20041;-76
2023/03/19 09:13:03;;;;;;;22.77;9.77;;;;;;;;;;5048660;28;20045;-76
2023/03/19 09:15:29;;;;;;;23.65;9.57;;;;;;;;;;5024422;28;20515;-75
2023/03/19 09:17:55;;;;;;;22.77;10.10;;;;;;;;;;5019164;28;20402;-77
2023/03/19 09:20:22;;;;;;;20.17;9.82;;;;;;;;;;5037131;28;20046;-78
2023/03/19 09:22:48;;;;;;;22.50;9.48;;;;;;;;;;5036026;28;20378;-78
2023/03/19 09:25:14;;;;;;;23.85;11.35;;;;;;;;;;5033175;28;20457;-80
2023/03/19 09:27:40;;;;;;;20.25;11.07;;;;;;;;;;5047137;28;20068;-76
2023/03/19 09:30:08;;;;;;;21.67;10.70;;;;;;;;;;5024588;28;20754;-77
2023/03/19 09:32:34;;;;;;;22.15;10.00;;;;;;;;;;5022668;28;20397;-77
2023/03/19 09:35:01;;;;;;;27.73;11.63;;;;;;;;;;5021798;28;20090;-76
2023/03/19 09:37:27;;;;;;;23.58;12.55;;;;;;;;;;5026672;28;20059;-77
2023/03/19 09:39:53;;;;;;;26.95;12.13;;;;;;;;;;5037714;28;20581;-74
2023/03/19 09:42:43;;;;;;;28.02;13.00;;;;;;;;;;5016310;28;20493;-76
2023/03/19 09:45:13;;;;;;;22.60;12.68;;;;;;;;;;5020873;28;20045;-75
2023/03/19 09:47:40;;;;;;;23.55;12.60;;;;;;;;;;5029502;28;20041;-76
2023/03/19 09:50:11;;;;;;;28.15;14.35;;;;;;;;;;5042387;28;20558;-78
2023/03/19 09:52:37;;;;;;;29.58;15.05;;;;;;;;;;5044144;28;20045;-80
2023/03/19 09:55:10;;;;;;;27.45;14.20;;;;;;;;;;5024384;28;20060;-77
2023/03/19 09:57:37;;;;;;;29.80;14.77;;;;;;;;;;5047387;28;20053;-76
2023/03/19 10:00:12;;;;;;;31.95;15.07;;;;;;;;;;5035514;28;20458;-78
2023/03/19 10:02:40;;;;;;;28.20;14.10;;;;;;;;;;5037187;28;20048;-78
2023/03/19 10:05:15;;;;;;;31.55;15.45;;;;;;;;;;5027039;28;20463;-78
2023/03/19 10:07:58;;;;;;;37.50;20.23;;;;;;;;;;5022881;28;20052;-76
2023/03/19 10:10:50;;;;;;;29.25;15.23;;;;;;;;;;5032630;28;20076;-78
2023/03/19 10:13:38;;;;;;;28.65;14.05;;;;;;;;;;5036590;28;20152;-79
2023/03/19 10:16:04;;;;;;;26.75;13.80;;;;;;;;;;5015717;28;20456;-79
2023/03/19 10:18:35;;;;;;;30.85;14.32;;;;;;;;;;5036474;28;20045;-77
2023/03/19 10:21:38;;;;;;;36.25;16.67;;;;;;;;;;5019500;28;20043;-79
2023/03/19 10:24:07;;;;;;;31.75;16.52;;;;;;;;;;4953297;28;20178;-80
2023/03/19 10:26:37;;;;;;;29.75;17.02;;;;;;;;;;5006145;28;20121;-79
2023/03/19 10:29:09;;;;;;;32.60;16.15;;;;;;;;;;5020977;28;20400;-76
2023/03/19 10:31:50;;;;;;;26.38;14.25;;;;;;;;;;5023906;28;20536;-75
2023/03/19 10:34:33;;;;;;;26.23;12.40;;;;;;;;;;5042010;28;20046;-75
2023/03/19 10:37:00;;;;;;;26.00;13.65;;;;;;;;;;5042018;28;20055;-75
2023/03/19 10:39:27;;;;;;;28.08;14.48;;;;;;;;;;5021659;28;20041;-75
2023/03/19 10:42:01;;;;;;;26.10;14.63;;;;;;;;;;5021562;28;20073;-75
2023/03/19 10:44:46;;;;;;;28.70;14.73;;;;;;;;;;5018714;28;20046;-75
2023/03/19 10:47:14;;;;;;;28.02;15.05;;;;;;;;;;5041060;28;20378;-75
2023/03/19 10:49:40;;;;;;;28.10;14.48;;;;;;;;;;5033067;28;20047;-75
2023/03/19 10:52:28;;;;;;;24.55;13.30;;;;;;;;;;5038595;28;20033;-75
2023/03/19 10:54:55;;;;;;;26.40;14.32;;;;;;;;;;5021707;28;20057;-75
2023/03/19 10:57:24;;;;;;;27.30;14.88;;;;;;;;;;5018623;28;20049;-75
2023/03/19 10:59:50;;;;;;;30.05;12.93;;;;;;;;;;5041055;28;20056;-75
2023/03/19 11:02:18;;;;;;;27.75;14.45;;;;;;;;;;5017607;28;20047;-75
2023/03/19 11:04:45;;;;;;;26.60;14.63;;;;;;;;;;5046270;28;20473;-75
2023/03/19 11:07:17;;;;;;;30.27;15.95;;;;;;;;;;5045926;28;20048;-76
2023/03/19 11:09:45;;;;;;;34.35;16.08;;;;;;;;;;5016195;28;20091;-76
2023/03/19 11:12:17;;;;;;;28.50;14.98;;;;;;;;;;5032552;28;20045;-75
2023/03/19 11:14:45;;;;;;;29.40;15.70;;;;;;;;;;5027480;28;20037;-76
2023/03/19 11:17:11;;;;;;;33.72;17.55;;;;;;;;;;5022153;28;20059;-76
2023/03/19 11:19:41;;;;;;;33.70;16.15;;;;;;;;;;5037611;28;20488;-76
2023/03/19 11:22:08;;;;;;;34.38;15.75;;;;;;;;;;5035658;28;20075;-75
2023/03/19 11:24:38;;;;;;;33.67;18.75;;;;;;;;;;5017008;28;20094;-75
2023/03/19 11:27:05;;;;;;;31.50;15.85;;;;;;;;;;5018677;28;20045;-76
2023/03/19 11:29:31;;;;;;;30.08;15.52;;;;;;;;;;5037880;28;20040;-75
2023/03/19 11:31:57;;;;;;;31.27;16.10;;;;;;;;;;5016252;28;20110;-75
2023/03/19 11:34:35;;;;;;;30.75;16.17;;;;;;;;;;5035783;28;20041;-75
2023/03/19 11:37:27;;;;;;;26.90;14.90;;;;;;;;;;5015539;28;20053;-76
2023/03/19 11:39:56;;;;;;;30.25;15.48;;;;;;;;;;5038744;28;20072;-76
2023/03/19 11:42:31;;;;;;;30.23;16.42;;;;;;;;;;5020392;28;20064;-76
2023/03/19 11:45:04;;;;;;;31.95;18.20;;;;;;;;;;5021575;28;20043;-76
2023/03/19 11:47:37;;;;;;;33.92;17.75;;;;;;;;;;5018333;28;20037;-76
2023/03/19 11:50:17;;;;;;;35.63;18.50;;;;;;;;;;5023959;28;20095;-76
2023/03/19 11:52:55;;;;;;;33.03;19.55;;;;;;;;;;5039625;28;20044;-75
2023/03/19 11:55:25;;;;;;;36.45;19.02;;;;;;;;;;5036939;28;20061;-75
2023/03/19 11:58:10;;;;;;;30.58;16.70;;;;;;;;;;5021316;28;20492;-75
2023/03/19 12:00:42;;;;;;;32.25;17.63;;;;;;;;;;5012125;28;20580;-76
2023/03/19 12:03:27;;;;;;;35.00;18.17;;;;;;;;;;5016908;28;20080;-76
2023/03/19 12:06:17;;;;;;;26.85;16.38;;;;;;;;;;5011559;28;20050;-76
2023/03/19 12:08:56;;;;;;;28.23;17.75;;;;;;;;;;5016044;28;20041;-76
2023/03/19 12:11:25;;;;;;;30.75;17.77;;;;;;;;;;5032351;28;20052;-76
2023/03/19 12:14:09;;;;;;;28.52;17.13;;;;;;;;;;5024535;28;20037;-76
2023/03/19 12:16:55;;;;;;;25.98;16.75;;;;;;;;;;5034551;28;20727;-76
2023/03/19 12:19:34;;;;;;;28.00;17.05;;;;;;;;;;5016608;28;20405;-76
2023/03/19 12:22:13;;;;;;;28.60;16.17;;;;;;;;;;5032240;28;20128;-76
2023/03/19 12:24:55;;;;;;;29.90;18.30;;;;;;;;;;5017530;28;20052;-76
2023/03/19 12:27:32;;;;;;;28.42;18.92;;;;;;;;;;5029354;28;20061;-76
2023/03/19 12:29:58;;;;;;;29.92;18.65;;;;;;;;;;5015624;28;20049;-76
2023/03/19 12:32:31;;;;;;;28.20;18.40;;;;;;;;;;5016740;28;20056;-76
2023/03/19 12:35:01;;;;;;;29.10;18.63;;;;;;;;;;5038346;28;20469;-76
2023/03/19 12:37:36;;;;;;;29.65;17.83;;;;;;;;;;5019247;28;20053;-76
2023/03/19 12:40:11;;;;;;;27.58;17.48;;;;;;;;;;5010338;28;20055;-76
2023/03/19 12:42:39;;;;;;;31.42;18.40;;;;;;;;;;5017954;28;20107;-76
2023/03/19 12:45:23;;;;;;;30.17;17.38;;;;;;;;;;5025767;28;20057;-76
2023/03/19 12:47:50;;;;;;;25.80;17.75;;;;;;;;;;5019716;28;20152;-76
2023/03/19 12:50:16;;;;;;;30.23;17.23;;;;;;;;;;5017000;28;20098;-76
2023/03/19 12:52:45;;;;;;;27.23;18.77;;;;;;;;;;5034933;28;20048;-76
2023/03/19 12:55:14;;;;;;;28.90;19.35;;;;;;;;;;5025333;28;20417;-76
2023/03/19 12:57:59;;;;;;;29.95;18.70;;;;;;;;;;5042083;28;20115;-76
2023/03/19 13:00:37;;;;;;;30.98;18.63;;;;;;;;;;5016683;28;20132;-76
2023/03/19 13:03:11;;;;;;;30.27;19.70;;;;;;;;;;5041382;28;20079;-76
2023/03/19 13:05:49;;;;;;;31.60;20.13;;;;;;;;;;5020194;28;20068;-76
2023/03/19 13:08:26;;;;;;;29.00;19.48;;;;;;;;;;5027678;28;20132;-76
2023/03/19 13:10:52;;;;;;;31.55;18.55;;;;;;;;;;5022307;28;20069;-77
2023/03/19 13:13:32;;;;;;;28.17;16.25;;;;;;;;;;5031510;28;20103;-76
2023/03/19 13:16:09;;;;;;;24.98;14.40;;;;;;;;;;5045537;28;20045;-76
2023/03/19 13:18:38;;;;;;;22.50;14.98;;;;;;;;;;5039838;28;20040;-76
2023/03/19 13:21:10;;;;;;;24.38;15.05;;;;;;;;;;5021781;28;20512;-76
2023/03/19 13:23:38;;;;;;;23.20;14.82;;;;;;;;;;5019958;28;20053;-77
2023/03/19 13:26:07;;;;;;;30.70;19.45;;;;;;;;;;5020863;28;20083;-76
2023/03/19 13:28:34;;;;;;;26.15;16.85;;;;;;;;;;5048422;28;20048;-74
2023/03/19 13:31:02;;;;;;;27.13;15.80;;;;;;;;;;5049580;28;20038;-75
2023/03/19 13:33:29;;;;;;;32.47;17.70;;;;;;;;;;5028581;28;20434;-74
2023/03/19 13:35:55;;;;;;;31.15;18.02;;;;;;;;;;5048341;28;20052;-76
2023/03/19 13:38:44;;;;;;;37.22;17.83;;;;;;;;;;5023804;28;20045;-76
2023/03/19 13:41:28;;;;;;;38.17;20.38;;;;;;;;;;5050796;28;20481;-77
2023/03/19 13:43:55;;;;;;;38.72;18.60;;;;;;;;;;5033134;28;20098;-77
2023/03/19 13:46:36;;;;;;;43.83;21.25;;;;;;;;;;5022973;28;20045;-77
2023/03/19 13:49:03;;;;;;;34.13;16.40;;;;;;;;;;5039751;28;20485;-77
2023/03/19 13:51:31;;;;;;;32.60;15.73;;;;;;;;;;5043073;28;20049;-77
2023/03/19 13:54:15;;;;;;;35.95;16.15;;;;;;;;;;5031988;28;20065;-76
2023/03/19 13:57:00;;;;;;;23.48;13.27;;;;;;;;;;5037985;28;20115;-76
2023/03/19 13:59:36;;;;;;;24.50;14.25;;;;;;;;;;5025115;28;20041;-76
2023/03/19 14:02:25;;;;;;;24.15;13.80;;;;;;;;;;5026406;28;20056;-76
2023/03/19 14:05:09;;;;;;;22.73;13.90;;;;;;;;;;5038454;28;20037;-76
2023/03/19 14:07:40;;;;;;;19.65;12.73;;;;;;;;;;5019252;28;20057;-77
2023/03/19 14:10:26;;;;;;;18.50;12.45;;;;;;;;;;5021179;28;20079;-76
2023/03/19 14:13:01;;;;;;;20.02;11.38;;;;;;;;;;5038136;28;20045;-76
2023/03/19 14:15:29;;;;;;;23.27;13.05;;;;;;;;;;5036222;28;20148;-77
2023/03/19 14:18:04;;;;;;;24.08;13.88;;;;;;;;;;5034646;28;20045;-76
2023/03/19 14:20:43;;;;;;;37.88;22.65;;;;;;;;;;5021506;28;20049;-76
2023/03/19 14:23:09;;;;;;;30.00;14.40;;;;;;;;;;5033177;28;20133;-77
2023/03/19 14:25:53;;;;;;;24.02;13.93;;;;;;;;;;5050101;28;20047;-75
2023/03/19 14:28:22;;;;;;;25.92;13.40;;;;;;;;;;5014298;28;20069;-75